Time;durP1;ratioP1;P1;durP2;ratioP2;P2;SDS_P1;SDS_P2;PMS_P1;PMS_P2;Temp;Humidity;BMP_temperature;BMP_pressure;BME280_temperature;BME280_humidity;BME280_pressure;Samples;Min_cycle;Max_cycle;Signal;HPM_P1;HPM_P2
2023/01/05 00:02:15;;;;;;;4.90;1.20;;;;;;;7.45;100.00;98174.97;102403;1297;59579;-65
2023/01/05 00:05:11;;;;;;;6.30;1.60;;;;;;;7.45;100.00;98172.19;102455;1291;61333;-64
2023/01/05 00:07:59;;;;;;;5.30;1.10;;;;;;;7.42;100.00;98172.97;102413;1298;72750;-65
2023/01/05 00:23:27;;;;;;;5.10;1.30;;;;;;;7.25;100.00;98162.20;102569;1294;73176;-65
2023/01/05 00:26:16;;;;;;;8.00;1.40;;;;;;;7.22;100.00;98157.56;102513;1294;67842;-67
2023/01/05 00:29:07;;;;;;;5.50;1.20;;;;;;;7.21;100.00;98160.33;102523;1295;72004;-66
2023/01/05 00:31:55;;;;;;;6.20;1.30;;;;;;;7.20;100.00;98168.02;102555;1291;59637;-67
2023/01/05 00:34:44;;;;;;;6.90;1.50;;;;;;;7.20;100.00;98164.59;102662;1292;60068;-65
2023/01/05 00:37:35;;;;;;;7.10;1.10;;;;;;;7.22;100.00;98164.13;102409;1291;72727;-67
2023/01/05 00:40:23;;;;;;;5.50;1.50;;;;;;;7.22;100.00;98160.73;102453;1299;68811;-68
2023/01/05 00:43:11;;;;;;;7.60;1.60;;;;;;;7.22;100.00;98162.32;102492;1299;73650;-66
2023/01/05 00:46:00;;;;;;;7.70;1.60;;;;;;;7.24;100.00;98156.80;102374;1296;59722;-65
2023/01/05 00:48:48;;;;;;;7.70;1.50;;;;;;;7.25;100.00;98156.36;102210;1297;60103;-65
2023/01/05 00:51:39;;;;;;;8.60;1.60;;;;;;;7.25;100.00;98154.79;102361;1297;73537;-64
2023/01/05 00:54:27;;;;;;;8.50;1.60;;;;;;;7.26;100.00;98154.54;102413;1297;68597;-64
2023/01/05 00:57:15;;;;;;;9.70;2.20;;;;;;;7.28;100.00;98156.48;102227;1299;72739;-65
2023/01/05 01:00:12;;;;;;;10.80;1.50;;;;;;;7.29;100.00;98162.52;102459;1297;59712;-65
2023/01/05 01:03:00;;;;;;;9.50;2.30;;;;;;;7.29;100.00;98163.77;102235;1290;60289;-65
2023/01/05 01:05:58;;;;;;;11.30;1.50;;;;;;;7.31;100.00;98166.08;102255;1298;72987;-65
2023/01/05 01:08:46;;;;;;;10.00;2.30;;;;;;;7.29;100.00;98160.56;102254;1299;67837;-64
2023/01/05 01:11:36;;;;;;;12.40;1.90;;;;;;;7.30;100.00;98162.26;102511;1299;72460;-67
2023/01/05 01:14:25;;;;;;;13.20;2.60;;;;;;;7.29;100.00;98156.23;102392;1297;59759;-64
2023/01/05 01:17:15;;;;;;;13.70;2.20;;;;;;;7.29;100.00;98157.75;102428;1292;60011;-65
2023/01/05 01:20:05;;;;;;;11.60;1.50;;;;;;;7.29;100.00;98156.66;102555;1295;72973;-67
2023/01/05 01:22:53;;;;;;;10.50;2.00;;;;;;;7.31;100.00;98154.27;102516;1298;67728;-64
2023/01/05 01:25:42;;;;;;;12.00;2.10;;;;;;;7.32;100.00;98158.02;102419;1295;72178;-65
2023/01/05 01:28:33;;;;;;;12.00;2.20;;;;;;;7.34;100.00;98162.98;102563;1299;59695;-64
2023/01/05 01:31:21;;;;;;;12.20;2.00;;;;;;;7.34;100.00;98159.99;102459;1294;59706;-66
2023/01/05 01:34:10;;;;;;;12.70;2.10;;;;;;;7.33;100.00;98160.08;102540;1295;73942;-65
2023/01/05 01:37:00;;;;;;;13.70;3.00;;;;;;;7.31;100.00;98159.14;102405;1291;67620;-64
2023/01/05 01:39:53;;;;;;;10.80;2.00;;;;;;;7.31;100.00;98158.24;102391;1288;73632;-64
2023/01/05 01:42:42;;;;;;;13.60;2.70;;;;;;;7.31;100.00;98157.97;102359;1297;60601;-65
2023/01/05 01:45:30;;;;;;;11.60;1.80;;;;;;;7.30;100.00;98153.58;102235;1291;59881;-66
2023/01/05 01:48:19;;;;;;;9.70;2.10;;;;;;;7.30;100.00;98149.42;102468;1294;72197;-64
2023/01/05 01:51:34;;;;;;;13.70;2.50;;;;;;;7.29;100.00;98147.90;102556;1278;67506;-65
2023/01/05 01:54:22;;;;;;;11.90;2.10;;;;;;;7.29;100.00;98146.30;102377;1299;72922;-63
2023/01/05 01:57:14;;;;;;;11.60;1.60;;;;;;;7.29;100.00;98143.64;102367;1295;60754;-64
2023/01/05 02:00:08;;;;;;;12.30;2.10;;;;;;;7.29;100.00;98144.49;102440;1299;60124;-64
2023/01/05 02:03:05;;;;;;;10.60;1.80;;;;;;;7.29;100.00;98143.30;102469;1296;72819;-64
2023/01/05 02:05:54;;;;;;;12.00;2.50;;;;;;;7.28;100.00;98138.80;102459;1298;67546;-65
2023/01/05 02:08:44;;;;;;;11.80;2.20;;;;;;;7.30;100.00;98139.02;102400;1291;72653;-64
2023/01/05 02:12:25;;;;;;;11.40;2.60;;;;;;;7.29;100.00;98137.68;102221;1295;59781;-64
2023/01/05 02:15:41;;;;;;;7.70;1.50;;;;;;;7.28;100.00;98131.91;101704;1303;60477;-64
2023/01/05 02:19:04;;;;;;;11.10;2.00;;;;;;;7.27;100.00;98132.41;102076;1305;73583;-65
2023/01/05 02:22:29;;;;;;;6.70;1.30;;;;;;;7.28;100.00;98136.40;101957;1295;68126;-64
2023/01/05 02:25:42;;;;;;;7.20;1.60;;;;;;;7.26;100.00;98137.91;101946;1305;73225;-64
2023/01/05 02:29:28;;;;;;;7.20;1.70;;;;;;;7.26;100.00;98136.34;101894;1297;59839;-65
2023/01/05 02:32:40;;;;;;;7.50;1.60;;;;;;;7.25;100.00;98132.59;101779;1305;169082;-65
2023/01/05 02:35:38;;;;;;;7.10;1.60;;;;;;;7.24;100.00;98129.17;101878;1302;72897;-63
2023/01/05 02:38:30;;;;;;;10.60;1.70;;;;;;;7.23;100.00;98127.31;101937;1301;68568;-63
2023/01/05 02:41:49;;;;;;;12.10;2.90;;;;;;;7.22;100.00;98122.41;101729;1305;72701;-65
2023/01/05 02:44:39;;;;;;;12.00;4.00;;;;;;;7.22;100.00;98119.85;101646;1309;60973;-65
2023/01/05 02:47:27;;;;;;;12.80;2.80;;;;;;;7.22;100.00;98111.92;101612;1305;61322;-64
2023/01/05 02:50:40;;;;;;;12.20;4.10;;;;;;;7.21;100.00;98111.80;101909;1303;72290;-65
2023/01/05 02:53:35;;;;;;;12.50;2.10;;;;;;;7.23;100.00;98113.07;102351;1297;68314;-66
2023/01/05 02:56:33;;;;;;;10.60;2.60;;;;;;;7.23;100.00;98107.77;102388;1299;71442;-63
2023/01/05 02:59:34;;;;;;;10.20;2.80;;;;;;;7.24;100.00;98112.11;102349;1299;59888;-64
2023/01/05 03:02:29;;;;;;;10.90;1.90;;;;;;;7.22;100.00;98107.46;102360;1299;60084;-64
2023/01/05 03:05:33;;;;;;;10.30;1.80;;;;;;;7.20;100.00;98106.11;102499;1297;73017;-63
2023/01/05 03:08:24;;;;;;;8.10;1.60;;;;;;;7.17;100.00;98105.97;102408;1295;68850;-65
2023/01/05 03:14:44;;;;;;;7.60;1.40;;;;;;;7.14;100.00;98104.29;102333;1290;59811;-65
2023/01/05 03:17:47;;;;;;;5.50;1.00;;;;;;;7.14;100.00;98102.55;102441;1299;60822;-64
2023/01/05 03:20:41;;;;;;;7.80;1.30;;;;;;;7.13;100.00;98104.57;102468;1298;74577;-63
2023/01/05 03:36:15;;;;;;;6.20;1.30;;;;;;;7.08;100.00;98112.52;102390;1299;73349;-64
2023/01/05 03:39:06;;;;;;;7.30;1.20;;;;;;;7.08;100.00;98107.05;102269;1295;67980;-64
2023/01/05 03:41:55;;;;;;;6.20;1.40;;;;;;;7.08;100.00;98107.89;102486;1292;71475;-65
2023/01/05 03:44:45;;;;;;;6.20;1.20;;;;;;;7.08;100.00;98106.98;102420;1297;59754;-66
2023/01/05 03:47:35;;;;;;;6.90;1.60;;;;;;;7.06;100.00;98111.80;102539;1292;61412;-65
2023/01/05 03:50:24;;;;;;;6.20;1.40;;;;;;;7.05;100.00;98109.02;102461;1297;74166;-65
2023/01/05 03:53:13;;;;;;;5.70;1.30;;;;;;;7.04;100.00;98106.50;102349;1295;67772;-64
2023/01/05 03:56:04;;;;;;;5.80;1.30;;;;;;;7.03;100.00;98105.88;102450;1299;72656;-63
2023/01/05 03:58:52;;;;;;;6.10;1.00;;;;;;;7.02;100.00;98101.59;102473;1299;60603;-65
2023/01/05 04:01:42;;;;;;;4.30;1.00;;;;;;;7.01;100.00;98099.05;102416;1299;59594;-65
2023/01/05 04:04:33;;;;;;;5.00;1.00;;;;;;;7.01;100.00;98107.35;102396;1295;72777;-66
2023/01/05 04:07:22;;;;;;;4.30;1.10;;;;;;;7.00;100.00;98108.64;102669;1291;68858;-67
2023/01/05 04:10:11;;;;;;;5.50;1.20;;;;;;;6.99;100.00;98109.42;102571;1299;72636;-67
2023/01/05 04:13:02;;;;;;;4.80;1.00;;;;;;;6.98;100.00;98110.70;102213;1291;59652;-65
2023/01/05 04:15:51;;;;;;;3.90;1.00;;;;;;;6.96;100.00;98107.22;102408;1299;60323;-65
2023/01/05 04:18:41;;;;;;;5.80;1.20;;;;;;;6.96;100.00;98103.21;102473;1298;74032;-64
2023/01/05 04:21:55;;;;;;;4.70;1.10;;;;;;;6.96;100.00;98108.83;102480;1294;66914;-66
2023/01/05 04:24:44;;;;;;;4.30;1.00;;;;;;;6.97;100.00;98105.88;102365;1291;73494;-64
2023/01/05 04:27:33;;;;;;;5.10;1.10;;;;;;;6.98;100.00;98112.33;102440;1299;59654;-65
2023/01/05 04:30:23;;;;;;;4.60;0.90;;;;;;;6.94;100.00;98101.65;102398;1295;60307;-66
2023/01/05 04:33:12;;;;;;;4.60;1.00;;;;;;;6.99;100.00;98110.63;102294;1298;74180;-64
2023/01/05 04:36:01;;;;;;;4.20;0.80;;;;;;;6.98;100.00;98117.80;102428;1298;67814;-65
2023/01/05 04:38:51;;;;;;;4.30;1.10;;;;;;;6.99;100.00;98120.54;102279;1302;73751;-64
2023/01/05 04:41:40;;;;;;;4.50;1.00;;;;;;;6.99;100.00;98118.29;102426;1299;59609;-64
2023/01/05 04:44:29;;;;;;;4.50;0.90;;;;;;;6.96;100.00;98120.27;102379;1299;59676;-64
2023/01/05 04:47:20;;;;;;;3.70;0.80;;;;;;;6.95;100.00;98123.52;102372;1294;72811;-64
2023/01/05 04:50:10;;;;;;;3.90;0.90;;;;;;;6.94;100.00;98125.59;102400;1299;67540;-64
2023/01/05 04:52:59;;;;;;;3.90;1.00;;;;;;;6.93;100.00;98133.48;102418;1295;73433;-65
2023/01/05 04:55:50;;;;;;;4.10;0.90;;;;;;;6.91;100.00;98139.08;102556;1299;59690;-65
2023/01/05 04:58:38;;;;;;;3.80;0.80;;;;;;;6.88;100.00;98138.53;102380;1297;60244;-65
2023/01/05 05:01:27;;;;;;;4.60;0.90;;;;;;;6.86;100.00;98140.65;102792;1299;73999;-69
2023/01/05 05:04:17;;;;;;;4.10;0.90;;;;;;;6.84;100.00;98146.49;102291;1291;68345;-68
2023/01/05 05:07:09;;;;;;;4.60;1.10;;;;;;;6.78;100.00;98137.77;102433;1292;72728;-71
2023/01/05 05:09:57;;;;;;;5.90;1.30;;;;;;;6.74;100.00;98141.34;102336;1298;59765;-69
2023/01/05 05:12:46;;;;;;;6.70;1.60;;;;;;;6.69;100.00;98143.06;102162;1292;59687;-69
2023/01/05 05:15:35;;;;;;;7.40;1.30;;;;;;;6.64;100.00;98145.11;102263;1298;70896;-67
2023/01/05 05:18:24;;;;;;;8.80;1.40;;;;;;;6.59;100.00;98148.20;102352;1292;68114;-69
2023/01/05 05:21:13;;;;;;;8.40;1.40;;;;;;;6.53;100.00;98147.33;102117;1303;72341;-69
2023/01/05 05:24:02;;;;;;;6.30;1.30;;;;;;;6.48;100.00;98144.98;102272;1299;59792;-68
2023/01/05 05:26:53;;;;;;;6.80;1.60;;;;;;;6.43;100.00;98147.05;102091;1295;60115;-69
2023/01/05 05:29:43;;;;;;;7.60;1.30;;;;;;;6.38;100.00;98148.38;102069;1299;74113;-69
2023/01/05 05:32:32;;;;;;;6.90;1.50;;;;;;;6.33;100.00;98142.96;102274;1297;66857;-68
2023/01/05 05:35:20;;;;;;;8.60;2.20;;;;;;;6.32;100.00;98147.66;102230;1298;72406;-67
2023/01/05 05:38:08;;;;;;;9.80;1.70;;;;;;;6.30;100.00;98147.86;102124;1299;60096;-68
2023/01/05 05:40:56;;;;;;;10.00;1.60;;;;;;;6.28;100.00;98140.77;102214;1288;59792;-66
2023/01/05 05:43:47;;;;;;;10.40;1.90;;;;;;;6.27;100.00;98144.41;102065;1295;71785;-66
2023/01/05 05:46:37;;;;;;;10.30;2.30;;;;;;;6.24;100.00;98148.16;102310;1299;68350;-66
2023/01/05 05:49:25;;;;;;;10.80;1.60;;;;;;;6.24;100.00;98146.94;102378;1289;73656;-66
2023/01/05 05:52:14;;;;;;;7.90;1.60;;;;;;;6.23;100.00;98145.85;102296;1299;60025;-66
2023/01/05 05:55:03;;;;;;;8.00;1.70;;;;;;;6.22;100.00;98142.44;102098;1295;60313;-66
2023/01/05 05:57:51;;;;;;;8.70;1.60;;;;;;;6.23;100.00;98147.45;102300;1299;73809;-67
2023/01/05 06:00:40;;;;;;;8.10;1.80;;;;;;;6.22;100.00;98148.73;102129;1297;67588;-65
2023/01/05 06:03:28;;;;;;;9.10;1.70;;;;;;;6.22;100.00;98153.27;102395;1294;73136;-66
2023/01/05 06:06:16;;;;;;;9.60;1.90;;;;;;;6.22;100.00;98154.95;102212;1294;59690;-67
2023/01/05 06:09:05;;;;;;;9.40;1.90;;;;;;;6.18;100.00;98164.79;102422;1299;61433;-67
2023/01/05 06:11:53;;;;;;;8.30;2.00;;;;;;;6.16;100.00;98155.63;102375;1297;73006;-68
2023/01/05 06:14:44;;;;;;;6.60;1.60;;;;;;;6.14;100.00;98159.14;101623;1295;1003849;-66
2023/01/05 06:17:32;;;;;;;7.50;1.60;;;;;;;6.09;100.00;98157.05;102372;1289;73421;-66
2023/01/05 06:20:21;;;;;;;8.80;1.70;;;;;;;6.03;100.00;98167.14;102389;1299;59754;-65
2023/01/05 06:23:09;;;;;;;9.60;1.90;;;;;;;6.01;100.00;98168.38;102449;1298;61189;-67
2023/01/05 06:25:58;;;;;;;8.80;1.70;;;;;;;5.98;100.00;98171.63;102304;1299;73000;-67
2023/01/05 06:28:46;;;;;;;11.20;1.80;;;;;;;5.96;100.00;98172.87;102333;1299;68288;-70
2023/01/05 06:31:35;;;;;;;11.20;2.10;;;;;;;5.95;100.00;98177.34;102115;1295;72634;-67
2023/01/05 06:34:23;;;;;;;10.00;2.00;;;;;;;5.93;100.00;98178.56;102307;1291;59840;-67
2023/01/05 06:37:12;;;;;;;6.70;1.60;;;;;;;5.91;100.00;98180.34;102150;1291;60667;-69
2023/01/05 06:40:01;;;;;;;8.20;1.80;;;;;;;5.91;100.00;98185.27;102410;1295;74061;-70
2023/01/05 06:42:49;;;;;;;8.10;1.50;;;;;;;5.89;100.00;98184.34;102466;1299;68894;-69
2023/01/05 06:45:37;;;;;;;6.50;1.50;;;;;;;5.88;100.00;98185.49;102289;1295;71909;-68
2023/01/05 06:48:27;;;;;;;6.10;1.30;;;;;;;5.85;100.00;98192.45;102328;1299;59630;-67
2023/01/05 06:51:15;;;;;;;7.50;1.50;;;;;;;5.84;100.00;98195.41;102481;1295;60728;-67
2023/01/05 06:54:03;;;;;;;4.50;1.00;;;;;;;5.82;100.00;98188.66;102486;1299;74569;-68
2023/01/05 06:56:51;;;;;;;6.30;1.40;;;;;;;5.80;100.00;98194.82;102345;1294;67894;-68
2023/01/05 06:59:40;;;;;;;5.80;1.30;;;;;;;5.78;100.00;98194.09;102582;1299;73674;-68
2023/01/05 07:02:28;;;;;;;6.00;1.10;;;;;;;5.75;100.00;98198.77;102339;1297;59778;-66
2023/01/05 07:05:17;;;;;;;5.60;1.30;;;;;;;5.73;100.00;98208.85;102260;1300;61358;-65
2023/01/05 07:08:05;;;;;;;4.30;1.10;;;;;;;5.70;100.00;98210.69;102226;1295;73328;-66
2023/01/05 07:10:54;;;;;;;4.10;1.10;;;;;;;5.67;100.00;98222.20;102448;1288;68635;-65
2023/01/05 07:13:49;;;;;;;6.00;2.00;;;;;;;5.60;100.00;98227.89;102366;1296;73622;-67
2023/01/05 07:16:40;;;;;;;5.80;1.10;;;;;;;5.59;100.00;98227.66;102396;1299;59788;-67
2023/01/05 07:19:28;;;;;;;5.20;1.40;;;;;;;5.56;100.00;98228.41;102583;1299;60361;-67
2023/01/05 07:22:17;;;;;;;6.10;1.10;;;;;;;5.53;100.00;98228.45;102400;1295;73001;-69
2023/01/05 07:25:06;;;;;;;7.40;1.70;;;;;;;5.52;100.00;98234.02;102149;1295;66643;-66
2023/01/05 07:27:54;;;;;;;5.50;1.50;;;;;;;5.50;100.00;98232.09;102502;1294;73684;-69
2023/01/05 07:30:42;;;;;;;5.60;1.20;;;;;;;5.49;100.00;98234.42;102439;1299;59795;-67
2023/01/05 07:33:30;;;;;;;6.20;1.30;;;;;;;5.47;100.00;98231.66;102417;1295;59539;-65
2023/01/05 07:36:26;;;;;;;6.40;1.20;;;;;;;5.42;100.00;98237.80;102378;1294;73286;-65
2023/01/05 07:39:16;;;;;;;5.20;1.20;;;;;;;5.41;100.00;98234.48;102365;1294;67827;-66
2023/01/05 07:42:04;;;;;;;5.50;1.40;;;;;;;5.38;100.00;98233.92;102484;1292;72692;-65
2023/01/05 07:44:52;;;;;;;6.90;1.70;;;;;;;5.37;100.00;98234.92;102446;1299;59698;-66
2023/01/05 07:47:40;;;;;;;6.10;1.50;;;;;;;5.35;100.00;98238.50;102390;1299;60811;-64
2023/01/05 07:50:29;;;;;;;5.80;1.30;;;;;;;5.31;100.00;98238.25;102123;1295;71001;-65
2023/01/05 07:53:17;;;;;;;7.50;1.60;;;;;;;5.29;100.00;98239.33;102323;1295;69383;-66
2023/01/05 07:56:07;;;;;;;6.30;1.70;;;;;;;5.29;100.00;98241.61;102632;1294;73419;-65
2023/01/05 07:58:55;;;;;;;6.70;1.50;;;;;;;5.29;100.00;98245.80;102504;1300;60060;-66
2023/01/05 08:01:44;;;;;;;6.60;1.40;;;;;;;5.26;100.00;98236.79;102426;1299;59572;-64
2023/01/05 08:04:33;;;;;;;6.80;1.70;;;;;;;5.30;100.00;98245.58;102334;1296;73022;-65
2023/01/05 08:07:22;;;;;;;8.50;1.50;;;;;;;5.30;100.00;98246.98;102368;1292;68849;-64
2023/01/05 08:10:30;;;;;;;6.30;1.60;;;;;;;5.32;100.00;98244.54;102387;1299;72356;-65
2023/01/05 08:16:27;;;;;;;6.10;1.40;;;;;;;5.37;100.00;98245.14;102316;1291;61384;-64
2023/01/05 08:19:15;;;;;;;8.30;1.60;;;;;;;5.37;100.00;98247.83;102471;1295;73948;-65
2023/01/05 08:22:04;;;;;;;7.10;1.60;;;;;;;5.33;100.00;98247.79;102416;1299;67790;-65
2023/01/05 08:24:52;;;;;;;6.50;1.30;;;;;;;5.30;100.00;98247.33;102510;1299;73338;-65
2023/01/05 08:27:40;;;;;;;6.30;1.30;;;;;;;5.27;100.00;98248.73;102254;1295;59945;-64
2023/01/05 08:30:29;;;;;;;6.30;1.20;;;;;;;5.26;100.00;98249.41;102153;1289;60010;-66
2023/01/05 08:33:17;;;;;;;6.90;1.40;;;;;;;5.23;100.00;98257.40;102367;1294;73858;-66
2023/01/05 08:36:13;;;;;;;5.60;1.50;;;;;;;5.22;100.00;98258.23;102401;1297;68249;-65
2023/01/05 08:39:01;;;;;;;6.30;1.30;;;;;;;5.21;100.00;98254.24;102128;1299;72625;-69
2023/01/05 08:41:49;;;;;;;6.40;1.30;;;;;;;5.22;100.00;98260.27;102640;1299;59757;-66
2023/01/05 08:44:38;;;;;;;9.00;2.10;;;;;;;5.23;100.00;98263.55;102328;1286;59674;-65
2023/01/05 08:47:26;;;;;;;7.20;1.70;;;;;;;5.25;100.00;98265.63;102353;1289;73559;-66
2023/01/05 08:50:17;;;;;;;6.70;1.50;;;;;;;5.27;100.00;98265.98;102258;1299;68553;-67
2023/01/05 08:53:05;;;;;;;6.30;1.70;;;;;;;5.28;100.00;98268.59;102189;1293;72676;-66
2023/01/05 08:55:54;;;;;;;5.20;1.50;;;;;;;5.31;100.00;98269.55;102392;1299;60541;-65
2023/01/05 08:58:43;;;;;;;6.40;1.60;;;;;;;5.38;100.00;98277.23;102382;1297;59640;-65
2023/01/05 09:01:31;;;;;;;5.90;1.20;;;;;;;5.41;100.00;98279.08;102184;1295;73107;-66
2023/01/05 09:04:20;;;;;;;6.60;1.40;;;;;;;5.41;100.00;98278.24;102296;1299;67801;-66
2023/01/05 09:07:08;;;;;;;6.20;1.20;;;;;;;5.41;100.00;98280.89;102498;1291;74046;-67
2023/01/05 09:09:57;;;;;;;6.30;1.30;;;;;;;5.37;100.00;98278.19;102364;1289;59652;-65
2023/01/05 09:12:45;;;;;;;7.00;1.70;;;;;;;5.38;100.00;98285.01;102337;1299;59614;-67
2023/01/05 09:15:35;;;;;;;6.80;1.70;;;;;;;5.39;100.00;98288.39;102467;1295;73973;-65
2023/01/05 09:18:23;;;;;;;6.00;1.70;;;;;;;5.39;100.00;98286.48;102382;1294;68706;-64
2023/01/05 09:21:13;;;;;;;6.70;1.90;;;;;;;5.39;100.00;98290.11;102425;1299;72921;-68
2023/01/05 09:24:02;;;;;;;7.40;2.30;;;;;;;5.42;100.00;98290.58;102553;1297;59692;-67
2023/01/05 09:26:51;;;;;;;6.90;2.00;;;;;;;5.44;100.00;98291.88;102548;1299;61203;-68
2023/01/05 09:29:39;;;;;;;5.90;1.80;;;;;;;5.46;100.00;98285.33;102330;1301;74442;-66
2023/01/05 09:32:28;;;;;;;6.30;1.70;;;;;;;5.48;100.00;98290.86;102495;1299;68705;-66
2023/01/05 09:35:17;;;;;;;7.30;1.80;;;;;;;5.50;100.00;98292.06;102409;1298;73698;-66
2023/01/05 09:38:05;;;;;;;6.30;1.50;;;;;;;5.54;100.00;98288.05;102444;1293;59667;-66
2023/01/05 09:40:59;;;;;;;6.80;1.60;;;;;;;5.56;100.00;98288.73;102138;1291;60407;-66
2023/01/05 09:43:53;;;;;;;5.60;1.50;;;;;;;5.55;100.00;98292.48;102477;1295;73588;-64
2023/01/05 09:46:47;;;;;;;7.70;1.90;;;;;;;5.54;100.00;98297.36;102238;1291;67774;-65
2023/01/05 09:49:40;;;;;;;7.70;1.90;;;;;;;5.48;100.00;98302.25;102286;1299;72637;-65
2023/01/05 09:52:28;;;;;;;6.40;1.80;;;;;;;5.47;100.00;98305.49;102288;1299;59575;-64
2023/01/05 09:55:29;;;;;;;6.90;1.90;;;;;;;5.45;100.00;98307.93;102332;1295;61875;-66
2023/01/05 09:58:25;;;;;;;6.80;1.70;;;;;;;5.45;100.00;98310.08;102394;1295;74041;-66
2023/01/05 10:01:19;;;;;;;5.80;1.60;;;;;;;5.47;100.00;98314.98;102284;1290;68384;-67
2023/01/05 10:04:19;;;;;;;5.20;1.30;;;;;;;5.49;100.00;98317.84;102172;1295;71879;-65
2023/01/05 10:07:46;;;;;;;5.10;1.20;;;;;;;5.48;100.00;98320.02;102342;1295;59805;-66
2023/01/05 10:10:42;;;;;;;4.70;1.10;;;;;;;5.54;100.00;98312.81;102382;1291;60140;-66
2023/01/05 10:13:35;;;;;;;6.30;1.30;;;;;;;5.59;100.00;98310.34;102368;1291;74061;-66
2023/01/05 10:16:23;;;;;;;6.90;2.20;;;;;;;5.60;100.00;98310.55;102588;1290;67569;-65
2023/01/05 10:19:20;;;;;;;5.50;1.70;;;;;;;5.56;100.00;98315.27;102395;1297;72702;-64
2023/01/05 10:22:43;;;;;;;5.60;1.60;;;;;;;5.49;100.00;98317.81;102354;1291;59808;-65
2023/01/05 10:25:52;;;;;;;6.50;2.00;;;;;;;5.45;100.00;98313.45;102349;1297;59585;-64
2023/01/05 10:28:50;;;;;;;8.20;1.90;;;;;;;5.42;100.00;98306.12;102280;1292;74451;-65
2023/01/05 10:31:51;;;;;;;6.70;1.50;;;;;;;5.40;100.00;98302.89;102444;1298;68421;-65
2023/01/05 10:35:07;;;;;;;6.00;1.50;;;;;;;5.35;100.00;98305.44;102349;1299;71710;-65
2023/01/05 10:38:31;;;;;;;5.60;1.20;;;;;;;5.32;99.93;98308.56;102469;1295;60995;-66
2023/01/05 10:41:54;;;;;;;6.80;1.20;;;;;;;5.26;99.86;98307.77;102688;1290;61325;-65
2023/01/05 10:44:51;;;;;;;9.40;1.60;;;;;;;5.27;100.00;98310.50;102499;1295;73801;-65
2023/01/05 10:47:40;;;;;;;6.80;1.60;;;;;;;5.26;99.69;98309.52;102397;1291;67433;-67
2023/01/05 10:50:39;;;;;;;5.30;1.70;;;;;;;5.30;99.56;98315.75;102433;1296;73676;-65
2023/01/05 10:53:28;;;;;;;7.40;1.60;;;;;;;5.36;99.42;98315.41;102500;1291;59970;-65
2023/01/05 10:56:28;;;;;;;6.50;1.20;;;;;;;5.41;99.15;98316.92;102416;1296;61410;-65
2023/01/05 10:59:16;;;;;;;5.90;1.20;;;;;;;5.41;98.05;98318.84;102466;1292;73352;-66
2023/01/05 11:02:12;;;;;;;7.60;1.50;;;;;;;5.35;98.41;98324.27;102456;1298;66455;-66
2023/01/05 11:05:24;;;;;;;5.60;1.50;;;;;;;5.27;98.36;98329.30;102475;1299;73761;-66
2023/01/05 11:08:24;;;;;;;6.10;1.50;;;;;;;5.20;98.86;98329.04;102401;1299;59776;-68
2023/01/05 11:11:28;;;;;;;6.60;2.00;;;;;;;5.18;99.66;98340.83;102406;1297;60054;-66
2023/01/05 11:14:16;;;;;;;5.90;1.70;;;;;;;5.18;99.46;98340.64;102356;1299;73081;-64
2023/01/05 11:17:11;;;;;;;6.10;1.50;;;;;;;5.17;99.67;98346.86;102459;1286;67429;-64
2023/01/05 11:20:00;;;;;;;4.60;1.10;;;;;;;5.08;99.48;98344.09;102650;1292;73010;-68
2023/01/05 11:22:50;;;;;;;5.40;1.40;;;;;;;5.01;99.72;98343.42;102385;1297;59682;-68
2023/01/05 11:25:38;;;;;;;5.40;1.50;;;;;;;4.97;99.81;98347.84;102426;1299;59745;-67
2023/01/05 11:28:29;;;;;;;7.30;2.30;;;;;;;4.94;100.00;98353.35;102386;1291;72741;-69
2023/01/05 11:31:18;;;;;;;5.80;1.60;;;;;;;4.89;100.00;98350.95;102434;1297;68662;-70
2023/01/05 11:34:33;;;;;;;8.60;1.90;;;;;;;4.88;100.00;98358.19;102350;1290;72995;-67
2023/01/05 11:37:28;;;;;;;4.90;1.40;;;;;;;4.85;100.00;98363.54;102131;1298;59670;-68
2023/01/05 11:40:20;;;;;;;4.90;1.20;;;;;;;4.82;100.00;98373.30;102344;1297;61451;-66
2023/01/05 11:43:11;;;;;;;4.30;1.10;;;;;;;4.80;100.00;98379.59;102329;1298;71867;-68
2023/01/05 11:46:03;;;;;;;4.50;1.20;;;;;;;4.82;99.99;98385.42;102392;1296;68892;-65
2023/01/05 11:48:56;;;;;;;5.10;1.40;;;;;;;4.79;99.66;98389.35;102455;1297;72651;-65
2023/01/05 11:51:44;;;;;;;4.20;1.10;;;;;;;4.76;99.89;98398.11;102310;1297;59759;-66
2023/01/05 11:54:37;;;;;;;5.10;1.10;;;;;;;4.78;99.91;98396.05;102368;1294;61362;-66
2023/01/05 11:57:25;;;;;;;5.10;1.40;;;;;;;4.80;100.00;98399.29;102411;1297;73009;-68
2023/01/05 12:00:42;;;;;;;5.20;1.40;;;;;;;4.81;100.00;98403.77;102291;1295;68258;-65
2023/01/05 12:03:44;;;;;;;5.30;1.30;;;;;;;4.78;100.00;98409.77;102233;1299;73450;-65
2023/01/05 12:07:08;;;;;;;5.40;1.40;;;;;;;4.77;100.00;98419.65;102598;1299;59680;-64
2023/01/05 12:10:26;;;;;;;5.80;1.50;;;;;;;4.82;99.72;98420.20;101672;1299;1003548;-69
2023/01/05 12:14:01;;;;;;;4.80;1.20;;;;;;;4.85;99.38;98422.55;102457;1298;73599;-64
2023/01/05 12:16:56;;;;;;;6.20;1.20;;;;;;;4.86;97.46;98430.90;102413;1297;67414;-66
2023/01/05 12:20:25;;;;;;;6.70;1.50;;;;;;;4.95;96.95;98434.81;102439;1295;72681;-64
2023/01/05 12:23:54;;;;;;;4.70;1.20;;;;;;;4.93;96.87;98445.99;102329;1297;59962;-66
2023/01/05 12:27:27;;;;;;;4.30;1.10;;;;;;;4.79;97.09;98449.41;102145;1298;60285;-67
2023/01/05 12:31:03;;;;;;;4.90;1.40;;;;;;;4.70;98.39;98451.36;102751;1299;74041;-68
2023/01/05 12:34:44;;;;;;;6.80;1.50;;;;;;;4.66;99.05;98453.97;101949;1297;67812;-64
2023/01/05 12:38:09;;;;;;;4.90;1.10;;;;;;;4.62;99.06;98455.14;101924;1297;72670;-66
2023/01/05 12:41:16;;;;;;;5.40;1.00;;;;;;;4.56;98.99;98462.09;101881;1304;59745;-68
2023/01/05 12:44:34;;;;;;;6.00;1.80;;;;;;;4.55;99.66;98465.92;101885;1303;61377;-65
2023/01/05 12:47:50;;;;;;;8.10;1.90;;;;;;;4.53;99.94;98477.48;101913;1297;72949;-64
2023/01/05 12:50:56;;;;;;;7.70;1.80;;;;;;;4.48;100.00;98486.15;101941;1303;67841;-65
2023/01/05 12:54:00;;;;;;;6.40;1.40;;;;;;;4.43;100.00;98498.91;101909;1304;73696;-66
2023/01/05 12:56:57;;;;;;;6.20;1.50;;;;;;;4.36;100.00;98505.76;101860;1304;59864;-66
2023/01/05 13:00:17;;;;;;;9.60;3.90;;;;;;;4.31;100.00;98514.77;101662;1304;61390;-65
2023/01/05 13:03:14;;;;;;;8.60;2.70;;;;;;;4.26;100.00;98526.07;101288;1302;73834;-66
2023/01/05 13:06:14;;;;;;;9.20;3.30;;;;;;;4.20;100.00;98540.05;100975;1309;67876;-65
2023/01/05 13:09:19;;;;;;;7.50;2.00;;;;;;;4.16;100.00;98557.52;101236;1309;73155;-65
2023/01/05 13:12:14;;;;;;;4.50;1.00;;;;;;;4.09;100.00;98566.14;101873;1304;59757;-65
2023/01/05 13:15:14;;;;;;;4.30;0.90;;;;;;;4.02;100.00;98580.48;101925;1304;60617;-67
2023/01/05 13:18:06;;;;;;;4.30;1.10;;;;;;;3.95;100.00;98598.44;101864;1304;74075;-65
2023/01/05 13:21:00;;;;;;;4.40;1.20;;;;;;;3.88;100.00;98618.40;101755;1297;67137;-66
2023/01/05 13:24:03;;;;;;;4.90;1.40;;;;;;;3.81;100.00;98631.88;101781;1304;72657;-65
2023/01/05 13:26:51;;;;;;;4.30;1.20;;;;;;;3.70;100.00;98644.92;102037;1304;59898;-67
2023/01/05 13:29:45;;;;;;;5.30;1.50;;;;;;;3.57;100.00;98657.25;101698;1305;60372;-66
2023/01/05 13:33:33;;;;;;;5.60;1.50;;;;;;;3.42;100.00;98672.52;101906;1295;73393;-68
2023/01/05 13:36:36;;;;;;;5.20;1.60;;;;;;;3.32;100.00;98690.94;100644;1312;66220;-66
2023/01/05 13:40:22;;;;;;;5.30;1.70;;;;;;;3.20;100.00;98703.46;101099;1313;73881;-67
2023/01/05 13:43:31;;;;;;;5.80;1.40;;;;;;;3.09;100.00;98716.16;101520;1292;59828;-66
2023/01/05 13:47:02;;;;;;;5.90;1.50;;;;;;;2.99;100.00;98730.00;101437;1300;60572;-66
2023/01/05 13:50:40;;;;;;;7.50;2.10;;;;;;;2.86;100.00;98747.69;101680;1307;73553;-69
2023/01/05 13:53:30;;;;;;;9.90;2.60;;;;;;;2.80;100.00;98767.55;101326;1306;66671;-67
2023/01/05 13:56:38;;;;;;;8.00;2.40;;;;;;;2.75;100.00;98779.60;101488;1301;72686;-67
2023/01/05 13:59:32;;;;;;;6.50;2.10;;;;;;;2.65;100.00;98795.27;101545;1307;59708;-69
2023/01/05 14:02:39;;;;;;;6.00;1.50;;;;;;;2.58;100.00;98810.10;101655;1306;59674;-66
2023/01/05 14:05:55;;;;;;;5.80;1.60;;;;;;;2.48;100.00;98819.34;101617;1306;73563;-66
2023/01/05 14:09:00;;;;;;;5.90;1.60;;;;;;;2.41;100.00;98828.37;101583;1300;68192;-67